createdAt,value
2022-08-22T00:01:32.944Z,18.46
2022-08-22T00:02:54.565Z,19.03
2022-08-22T00:03:08.205Z,19.11
2022-08-22T00:04:44.745Z,18.41
2022-08-22T00:07:20.354Z,18.37
2022-08-22T00:10:04.392Z,18.33
2022-08-22T00:12:37.444Z,18.34
2022-08-22T00:15:42.464Z,18.32
2022-08-22T00:18:31.774Z,18.32
2022-08-22T00:21:11.163Z,18.30
2022-08-22T00:23:45.933Z,18.30
2022-08-22T00:26:22.059Z,18.32
2022-08-22T00:28:58.829Z,18.34
2022-08-22T00:31:31.985Z,18.35
2022-08-22T00:34:06.012Z,18.34
2022-08-22T00:37:09.726Z,18.34
2022-08-22T00:39:45.151Z,18.31
2022-08-22T00:42:36.596Z,18.29
2022-08-22T00:45:31.520Z,18.30
2022-08-22T00:48:01.059Z,18.33
2022-08-22T00:50:56.196Z,18.29
2022-08-22T00:53:32.029Z,18.27
2022-08-22T00:56:14.953Z,18.25
2022-08-22T00:58:57.617Z,18.23
2022-08-22T01:01:35.824Z,18.23
2022-08-22T01:04:11.487Z,18.21
2022-08-22T01:06:43.890Z,18.18
2022-08-22T01:09:48.240Z,18.19
2022-08-22T01:12:25.718Z,18.18
2022-08-22T01:15:06.058Z,18.14
2022-08-22T01:17:47.534Z,18.09
2022-08-22T01:20:36.169Z,18.07
2022-08-22T01:23:17.801Z,18.06
2022-08-22T01:26:10.725Z,18.04
2022-08-22T01:29:28.282Z,17.99
2022-08-22T01:32:18.070Z,17.93
2022-08-22T01:34:53.556Z,17.93
2022-08-22T01:37:49.347Z,17.92
2022-08-22T01:40:37.684Z,17.91
2022-08-22T01:43:59.116Z,17.91
2022-08-22T01:46:37.242Z,17.92
2022-08-22T01:49:33.028Z,17.94
2022-08-22T01:52:14.424Z,17.96
2022-08-22T01:54:48.245Z,17.97
2022-08-22T01:57:14.937Z,17.97
2022-08-22T01:59:44.704Z,17.97
2022-08-22T02:02:41.532Z,17.95
2022-08-22T02:05:20.572Z,17.97
2022-08-22T02:08:13.580Z,17.95
2022-08-22T02:11:06.908Z,17.95
2022-08-22T02:13:57.084Z,17.92
2022-08-22T02:16:37.581Z,17.86
2022-08-22T02:19:24.684Z,17.83
2022-08-22T02:22:02.187Z,17.81
2022-08-22T02:25:04.426Z,17.75
2022-08-22T02:27:58.955Z,17.73
2022-08-22T02:30:42.286Z,17.69
2022-08-22T02:33:13.376Z,17.65
2022-08-22T02:35:48.302Z,17.64
2022-08-22T02:38:24.216Z,17.60
2022-08-22T02:41:06.168Z,17.56
2022-08-22T02:43:49.661Z,17.54
2022-08-22T02:46:28.937Z,17.51
2022-08-22T02:49:12.410Z,17.51
2022-08-22T02:51:48.125Z,17.47
2022-08-22T02:54:20.731Z,17.47
2022-08-22T02:57:09.551Z,17.44
2022-08-22T03:00:31.891Z,17.40
2022-08-22T03:03:01.214Z,17.36
2022-08-22T03:05:27.921Z,17.30
2022-08-22T03:08:25.897Z,17.28
2022-08-22T03:11:27.473Z,17.25
2022-08-22T03:13:58.814Z,17.24
2022-08-22T03:16:34.274Z,17.24
2022-08-22T03:19:39.258Z,17.18
2022-08-22T03:22:11.574Z,17.14
2022-08-22T03:24:55.452Z,17.11
2022-08-22T03:27:32.508Z,17.06
2022-08-22T03:30:21.643Z,17.01
2022-08-22T03:32:54.554Z,16.94
2022-08-22T03:35:27.153Z,16.88
2022-08-22T03:37:58.808Z,16.83
2022-08-22T03:40:41.814Z,16.77
2022-08-22T03:43:17.341Z,16.71
2022-08-22T03:46:21.608Z,16.66
2022-08-22T03:49:13.012Z,16.62
2022-08-22T03:51:40.812Z,16.59
2022-08-22T03:54:30.350Z,16.57
2022-08-22T03:57:20.745Z,16.55
2022-08-22T04:00:12.675Z,16.54
2022-08-22T04:03:00.321Z,16.54
2022-08-22T04:06:12.611Z,16.56
2022-08-22T04:09:03.963Z,16.58
2022-08-22T04:11:50.192Z,16.58
2022-08-22T04:14:25.747Z,16.57
2022-08-22T04:17:29.837Z,16.54
2022-08-22T04:20:16.632Z,16.50
2022-08-22T04:23:05.127Z,16.49
2022-08-22T04:25:36.513Z,16.49
2022-08-22T04:28:16.701Z,16.49
2022-08-22T04:30:54.265Z,16.50
2022-08-22T04:33:28.405Z,16.51
2022-08-22T04:36:12.192Z,16.52
2022-08-22T04:38:47.754Z,16.54
2022-08-22T04:41:24.460Z,16.57
2022-08-22T04:43:54.487Z,16.60
2022-08-22T04:46:37.136Z,16.64
2022-08-22T04:49:25.060Z,16.67
2022-08-22T04:52:24.287Z,16.71
2022-08-22T04:55:15.485Z,16.71
2022-08-22T04:58:01.546Z,16.73
2022-08-22T05:01:11.861Z,16.75
2022-08-22T05:03:45.712Z,16.82
2022-08-22T05:06:13.653Z,16.83
2022-08-22T05:08:40.681Z,16.86
2022-08-22T05:11:08.113Z,16.91
2022-08-22T05:13:58.506Z,16.94
2022-08-22T05:16:29.439Z,16.92
2022-08-22T05:19:05.729Z,16.88
2022-08-22T05:21:36.029Z,16.86
2022-08-22T05:24:09.644Z,16.83
2022-08-22T05:26:38.907Z,16.81
2022-08-22T05:29:10.272Z,16.80
2022-08-22T05:31:44.015Z,16.78
2022-08-22T05:34:14.405Z,16.76
2022-08-22T05:36:44.276Z,16.75
2022-08-22T05:39:17.803Z,16.77
2022-08-22T05:41:45.049Z,16.82
2022-08-22T05:44:36.189Z,16.82
2022-08-22T05:47:06.595Z,16.82
2022-08-22T05:50:02.256Z,16.83
2022-08-22T05:52:40.980Z,16.85
2022-08-22T05:55:16.474Z,16.87
2022-08-22T05:57:48.305Z,16.94
2022-08-22T06:00:19.142Z,17.04
2022-08-22T06:03:11.454Z,17.15
2022-08-22T06:05:41.286Z,17.26
2022-08-22T06:08:21.571Z,17.35
2022-08-22T06:10:51.841Z,17.47
2022-08-22T06:13:32.507Z,17.57
2022-08-22T06:15:59.251Z,17.66
2022-08-22T06:18:27.147Z,17.75
2022-08-22T06:20:56.824Z,17.83
2022-08-22T06:23:54.152Z,17.93
2022-08-22T06:26:21.528Z,18.03
2022-08-22T06:28:55.250Z,18.14
2022-08-22T06:31:34.886Z,18.22
2022-08-22T06:34:10.542Z,18.30
2022-08-22T06:36:40.035Z,18.39
2022-08-22T06:39:26.558Z,18.44
2022-08-22T06:42:02.993Z,18.51
2022-08-22T06:44:36.066Z,18.53
2022-08-22T06:47:10.334Z,18.59
2022-08-22T06:49:37.833Z,18.66
2022-08-22T06:52:11.686Z,18.73
2022-08-22T06:54:40.541Z,18.92
2022-08-22T06:57:26.092Z,19.07
2022-08-22T06:59:54.701Z,19.15
2022-08-22T07:02:30.479Z,19.29
2022-08-22T07:04:57.193Z,19.33
2022-08-22T07:07:25.818Z,19.52
2022-08-22T07:09:55.452Z,19.59
2022-08-22T07:12:26.761Z,19.72
2022-08-22T07:14:58.861Z,19.73
2022-08-22T07:17:28.551Z,19.81
2022-08-22T07:20:06.536Z,19.94
2022-08-22T07:22:35.598Z,20.02
2022-08-22T07:25:11.059Z,20.12
2022-08-22T07:27:49.759Z,20.23
2022-08-22T07:30:28.203Z,20.23
2022-08-22T07:33:23.604Z,20.35
2022-08-22T07:36:19.062Z,20.57
2022-08-22T07:38:49.480Z,20.69
2022-08-22T07:41:22.597Z,20.93
2022-08-22T07:44:19.001Z,21.07
2022-08-22T07:47:09.686Z,20.91
2022-08-22T07:49:39.130Z,21.07
2022-08-22T07:52:16.791Z,21.17
2022-08-22T07:54:48.702Z,21.28
2022-08-22T07:57:22.480Z,21.54
2022-08-22T07:59:54.739Z,21.68
2022-08-22T08:02:21.970Z,21.78
2022-08-22T08:04:50.752Z,21.68
2022-08-22T08:07:20.995Z,21.73
2022-08-22T08:09:52.993Z,21.85
2022-08-22T08:12:22.055Z,22.07
2022-08-22T08:14:52.160Z,21.99
2022-08-22T08:17:32.155Z,21.94
2022-08-22T08:20:02.598Z,22.15
2022-08-22T08:22:29.802Z,22.12
2022-08-22T08:24:58.560Z,22.47
2022-08-22T08:27:50.201Z,22.55
2022-08-22T08:30:34.332Z,22.87
2022-08-22T08:33:25.788Z,23.12
2022-08-22T08:36:12.716Z,23.47
2022-08-22T08:38:48.134Z,23.49
2022-08-22T08:41:33.292Z,23.86
2022-08-22T08:44:09.038Z,24.01
2022-08-22T08:46:41.666Z,24.12
2022-08-22T08:49:23.953Z,24.16
2022-08-22T08:52:14.933Z,24.10
2022-08-22T08:55:02.424Z,23.69
2022-08-22T08:57:59.526Z,23.78
2022-08-22T09:00:45.722Z,23.94
2022-08-22T09:03:52.837Z,23.95
2022-08-22T09:06:52.792Z,24.26
2022-08-22T09:09:54.196Z,24.62
2022-08-22T09:12:20.918Z,25.84
2022-08-22T09:15:31.612Z,26.27
2022-08-22T09:18:18.241Z,26.20
2022-08-22T09:21:11.052Z,26.20
2022-08-22T09:24:10.726Z,26.12
2022-08-22T09:26:52.470Z,26.17
2022-08-22T09:29:54.923Z,26.75
2022-08-22T09:32:35.111Z,27.20
2022-08-22T09:35:27.847Z,27.07
2022-08-22T09:38:18.879Z,27.57
2022-08-22T09:41:13.168Z,27.02
2022-08-22T09:44:06.029Z,27.23
2022-08-22T09:47:03.455Z,27.47
2022-08-22T09:49:54.082Z,27.09
2022-08-22T09:52:46.379Z,27.93
2022-08-22T09:55:35.396Z,28.04
2022-08-22T09:58:11.223Z,27.99
2022-08-22T10:00:44.116Z,28.64
2022-08-22T10:03:13.844Z,28.64
2022-08-22T10:05:52.903Z,29.40
2022-08-22T10:08:37.168Z,29.67
2022-08-22T10:11:26.812Z,29.84
2022-08-22T10:14:01.475Z,28.63
2022-08-22T10:16:46.603Z,27.68
2022-08-22T10:19:34.293Z,28.50
2022-08-22T10:22:18.091Z,27.92
2022-08-22T10:25:15.146Z,27.78
2022-08-22T10:27:55.090Z,28.08
2022-08-22T10:30:34.874Z,27.92
2022-08-22T10:33:31.336Z,27.98
2022-08-22T10:36:12.032Z,28.20
2022-08-22T10:38:49.376Z,28.11
2022-08-22T10:41:19.900Z,28.11
2022-08-22T10:44:00.634Z,27.23
2022-08-22T10:46:37.603Z,28.06
2022-08-22T10:49:11.204Z,27.73
2022-08-22T10:51:53.944Z,28.21
2022-08-22T10:54:48.301Z,27.70
2022-08-22T10:57:22.603Z,28.32
2022-08-22T10:59:59.517Z,28.51
2022-08-22T11:02:55.768Z,29.80
2022-08-22T11:05:50.102Z,29.65
2022-08-22T11:08:33.064Z,29.51
2022-08-22T11:11:10.140Z,29.03
2022-08-22T11:13:55.980Z,29.25
2022-08-22T11:16:44.093Z,30.46
2022-08-22T11:19:29.176Z,30.87
2022-08-22T11:22:01.986Z,30.78
2022-08-22T11:24:53.995Z,30.57
2022-08-22T11:27:37.959Z,31.42
2022-08-22T11:30:10.851Z,31.88
2022-08-22T11:33:04.661Z,30.83
2022-08-22T11:35:47.567Z,30.48
2022-08-22T11:38:36.126Z,30.30
2022-08-22T11:41:28.641Z,29.60
2022-08-22T11:44:06.305Z,30.41
2022-08-22T11:46:37.237Z,30.68
2022-08-22T11:49:26.759Z,30.32
2022-08-22T11:52:00.221Z,29.44
2022-08-22T11:55:03.651Z,30.41
2022-08-22T11:57:37.231Z,31.97
2022-08-22T12:00:25.276Z,31.47
2022-08-22T12:03:27.786Z,31.94
2022-08-22T12:06:05.369Z,33.81
2022-08-22T12:08:34.537Z,35.27
2022-08-22T12:11:15.083Z,35.83
2022-08-22T12:14:06.313Z,36.71
2022-08-22T12:16:53.807Z,35.46
2022-08-22T12:20:05.595Z,36.10
2022-08-22T12:22:53.620Z,34.32
2022-08-22T12:25:35.396Z,32.41
2022-08-22T12:28:13.918Z,30.65
2022-08-22T12:31:00.640Z,30.16
2022-08-22T12:33:49.297Z,30.19
2022-08-22T12:36:32.569Z,29.31
2022-08-22T12:39:23.246Z,28.59
2022-08-22T12:42:14.788Z,28.54
2022-08-22T12:45:09.891Z,27.44
2022-08-22T12:47:53.317Z,28.04
2022-08-22T12:50:28.963Z,29.23
2022-08-22T12:53:48.961Z,30.68
2022-08-22T12:56:37.561Z,29.53
2022-08-22T12:59:26.405Z,30.10
2022-08-22T13:01:55.765Z,29.94
2022-08-22T13:04:33.311Z,30.13
2022-08-22T13:07:17.595Z,32.66
2022-08-22T13:09:50.195Z,33.91
2022-08-22T13:12:25.980Z,34.71
2022-08-22T13:15:02.026Z,35.95
2022-08-22T13:17:29.458Z,36.23
2022-08-22T13:20:09.058Z,33.48
2022-08-22T13:22:40.698Z,33.70
2022-08-22T13:25:25.489Z,34.97
2022-08-22T13:28:03.699Z,32.83
2022-08-22T13:30:37.379Z,31.64
2022-08-22T13:33:14.408Z,31.17
2022-08-22T13:35:52.618Z,29.78
2022-08-22T13:38:46.296Z,29.66
2022-08-22T13:41:13.487Z,29.44
2022-08-22T13:44:00.381Z,29.77
2022-08-22T13:46:30.408Z,29.25
2022-08-22T13:49:07.835Z,28.65
2022-08-22T13:51:53.394Z,28.21
2022-08-22T13:54:58.391Z,27.81
2022-08-22T13:57:35.000Z,27.91
2022-08-22T14:00:39.993Z,27.44
2022-08-22T14:03:26.565Z,27.29
2022-08-22T14:05:59.030Z,27.43
2022-08-22T14:08:45.234Z,28.07
2022-08-22T14:11:21.566Z,28.92
2022-08-22T14:13:59.730Z,28.94
2022-08-22T14:16:29.541Z,29.94
2022-08-22T14:19:06.191Z,30.72
2022-08-22T14:21:45.920Z,29.87
2022-08-22T14:24:31.781Z,30.75
2022-08-22T14:27:09.143Z,30.67
2022-08-22T14:29:50.407Z,31.74
2022-08-22T14:32:26.803Z,33.05
2022-08-22T14:35:05.043Z,33.34
2022-08-22T14:37:41.287Z,34.30
2022-08-22T14:40:14.798Z,35.49
2022-08-22T14:43:22.702Z,35.12
2022-08-22T14:46:02.227Z,34.91
2022-08-22T14:48:40.742Z,35.74
2022-08-22T14:51:23.407Z,34.17
2022-08-22T14:53:50.519Z,33.24
2022-08-22T14:56:28.376Z,32.45
2022-08-22T14:59:06.672Z,32.21
2022-08-22T15:01:35.521Z,33.01
2022-08-22T15:04:08.387Z,33.77
2022-08-22T15:06:37.835Z,33.65
2022-08-22T15:09:08.558Z,33.31
2022-08-22T15:11:36.826Z,33.28
2022-08-22T15:14:24.719Z,32.62
2022-08-22T15:16:58.134Z,32.80
2022-08-22T15:19:36.836Z,34.46
2022-08-22T15:22:20.175Z,34.27
2022-08-22T15:25:01.869Z,33.52
2022-08-22T15:27:33.874Z,32.11
2022-08-22T15:30:04.101Z,31.49
2022-08-22T15:32:36.782Z,31.16
2022-08-22T15:35:27.256Z,31.94
2022-08-22T15:38:02.376Z,31.74
2022-08-22T15:40:42.495Z,30.85
2022-08-22T15:43:49.431Z,30.56
2022-08-22T15:46:25.930Z,29.96
2022-08-22T15:49:13.964Z,30.32
2022-08-22T15:51:55.592Z,32.03
2022-08-22T15:54:26.658Z,33.75
2022-08-22T15:57:10.158Z,34.83
2022-08-22T15:59:53.764Z,34.06
2022-08-22T16:02:22.559Z,32.63
2022-08-22T16:04:57.631Z,30.58
2022-08-22T16:07:35.370Z,30.61
2022-08-22T16:10:10.820Z,29.82
2022-08-22T16:12:40.132Z,29.67
2022-08-22T16:15:50.319Z,31.01
2022-08-22T16:18:43.361Z,32.08
2022-08-22T16:21:23.503Z,32.04
2022-08-22T16:23:49.993Z,31.39
2022-08-22T16:26:31.708Z,30.24
2022-08-22T16:29:13.478Z,30.12
2022-08-22T16:31:44.169Z,31.24
2022-08-22T16:34:16.899Z,32.32
2022-08-22T16:37:14.727Z,32.46
2022-08-22T16:39:47.741Z,33.01
2022-08-22T16:42:14.389Z,33.90
2022-08-22T16:44:40.845Z,33.63
2022-08-22T16:47:30.299Z,34.10
2022-08-22T16:50:01.265Z,34.27
2022-08-22T16:52:27.766Z,34.41
2022-08-22T16:54:59.909Z,34.09
2022-08-22T16:58:09.433Z,33.75
2022-08-22T17:00:57.958Z,33.08
2022-08-22T17:03:34.531Z,31.96
2022-08-22T17:06:42.186Z,30.18
2022-08-22T17:09:34.254Z,28.66
2022-08-22T17:12:25.265Z,27.89
2022-08-22T17:15:07.166Z,27.97
2022-08-22T17:17:46.221Z,27.40
2022-08-22T17:20:51.640Z,27.38
2022-08-22T17:23:53.739Z,26.83
2022-08-22T17:26:36.822Z,26.61
2022-08-22T17:29:18.169Z,26.60
2022-08-22T17:32:06.759Z,26.61
2022-08-22T17:34:42.739Z,26.59
2022-08-22T17:37:56.972Z,26.80
2022-08-22T17:40:23.978Z,27.36
2022-08-22T17:42:59.596Z,28.05
2022-08-22T17:45:28.118Z,27.78
2022-08-22T17:48:12.207Z,27.57
2022-08-22T17:50:59.093Z,26.65
2022-08-22T17:53:28.505Z,26.36
2022-08-22T17:56:05.081Z,26.02
2022-08-22T17:58:46.170Z,25.91
2022-08-22T18:01:15.911Z,25.77
2022-08-22T18:03:51.707Z,25.77
2022-08-22T18:06:30.980Z,25.68
2022-08-22T18:09:16.321Z,25.52
2022-08-22T18:11:52.800Z,25.42
2022-08-22T18:14:44.177Z,25.38
2022-08-22T18:17:19.177Z,25.13
2022-08-22T18:19:55.209Z,25.14
2022-08-22T18:22:24.746Z,25.09
2022-08-22T18:25:06.023Z,25.01
2022-08-22T18:27:50.871Z,25.08
2022-08-22T18:30:21.735Z,24.89
2022-08-22T18:33:17.204Z,24.71
2022-08-22T18:35:53.691Z,24.55
2022-08-22T18:38:30.446Z,24.40
2022-08-22T18:40:59.600Z,24.35
2022-08-22T18:43:36.842Z,24.26
2022-08-22T18:46:25.783Z,24.20
2022-08-22T18:49:14.109Z,24.08
2022-08-22T18:51:38.987Z,24.05
2022-08-22T18:54:05.492Z,24.00
2022-08-22T18:56:34.174Z,23.94
2022-08-22T18:59:08.228Z,23.93
2022-08-22T19:01:51.891Z,23.88
2022-08-22T19:04:53.364Z,23.88
2022-08-22T19:07:41.545Z,23.85
2022-08-22T19:10:20.748Z,23.76
2022-08-22T19:13:03.369Z,23.69
2022-08-22T19:15:48.650Z,23.66
2022-08-22T19:18:23.024Z,23.59
2022-08-22T19:21:42.668Z,23.61
2022-08-22T19:24:34.669Z,23.56
2022-08-22T19:27:07.287Z,23.49
2022-08-22T19:29:33.733Z,23.42
2022-08-22T19:32:02.044Z,23.41
2022-08-22T19:34:32.627Z,23.36
2022-08-22T19:37:30.565Z,23.31
2022-08-22T19:40:08.888Z,23.29
2022-08-22T19:42:38.189Z,23.23
2022-08-22T19:45:26.530Z,23.15
2022-08-22T19:48:14.618Z,23.14
2022-08-22T19:50:41.984Z,23.13
2022-08-22T19:53:25.704Z,23.09
2022-08-22T19:56:07.984Z,23.07
2022-08-22T19:58:50.313Z,23.06
2022-08-22T20:01:39.272Z,23.06
2022-08-22T20:04:27.547Z,23.02
2022-08-22T20:07:30.647Z,23.00
2022-08-22T20:10:04.351Z,22.97
2022-08-22T20:12:36.754Z,22.99
2022-08-22T20:15:19.787Z,22.96
2022-08-22T20:18:11.550Z,22.95
2022-08-22T20:20:38.298Z,22.96
2022-08-22T20:23:22.966Z,22.95
2022-08-22T20:25:52.821Z,22.94
2022-08-22T20:28:36.919Z,22.97
2022-08-22T20:31:08.185Z,22.95
2022-08-22T20:33:38.699Z,22.92
2022-08-22T20:36:27.221Z,22.87
2022-08-22T20:39:07.293Z,22.90
2022-08-22T20:41:44.500Z,22.95
2022-08-22T20:44:16.898Z,22.97
2022-08-22T20:47:02.795Z,22.97
2022-08-22T20:49:37.688Z,22.97
2022-08-22T20:52:07.681Z,22.92
2022-08-22T20:54:39.467Z,22.85
2022-08-22T20:57:19.774Z,22.80
2022-08-22T20:59:53.778Z,22.75
2022-08-22T21:02:29.351Z,22.68
2022-08-22T21:05:04.533Z,22.58
2022-08-22T21:07:33.903Z,22.56
2022-08-22T21:10:39.056Z,22.50
2022-08-22T21:13:06.933Z,22.45
2022-08-22T21:15:49.314Z,22.42
2022-08-22T21:18:37.094Z,22.36
2022-08-22T21:21:24.741Z,22.34
2022-08-22T21:23:58.627Z,22.30
2022-08-22T21:26:49.051Z,22.26
2022-08-22T21:29:15.485Z,22.25
2022-08-22T21:32:04.405Z,22.25
2022-08-22T21:34:41.651Z,22.22
2022-08-22T21:37:33.041Z,22.18
2022-08-22T21:40:07.815Z,22.14
2022-08-22T21:42:45.012Z,22.10
2022-08-22T21:45:33.805Z,22.04
2022-08-22T21:48:01.424Z,22.01
2022-08-22T21:50:37.762Z,22.02
2022-08-22T21:53:12.130Z,21.96
2022-08-22T21:55:44.772Z,21.93
2022-08-22T21:58:34.160Z,21.87
2022-08-22T22:01:24.820Z,21.84
2022-08-22T22:03:52.094Z,21.81
2022-08-22T22:06:18.631Z,21.80
2022-08-22T22:08:45.199Z,21.76
2022-08-22T22:11:13.587Z,21.74
2022-08-22T22:13:40.791Z,21.73
2022-08-22T22:16:08.670Z,21.72
2022-08-22T22:18:36.462Z,21.69
2022-08-22T22:21:03.293Z,21.65
2022-08-22T22:23:29.837Z,21.64
2022-08-22T22:25:58.539Z,21.60
2022-08-22T22:28:29.792Z,21.57
2022-08-22T22:30:56.750Z,21.51
2022-08-22T22:33:27.117Z,21.49
2022-08-22T22:35:55.085Z,21.37
2022-08-22T22:38:24.259Z,21.32
2022-08-22T22:40:51.323Z,21.30
2022-08-22T22:43:17.906Z,21.28
2022-08-22T22:45:44.438Z,21.25
2022-08-22T22:48:11.079Z,21.20
2022-08-22T22:50:43.319Z,21.10
2022-08-22T22:53:10.698Z,21.04
2022-08-22T22:55:41.618Z,20.87
2022-08-22T22:58:08.839Z,20.92
2022-08-22T23:00:37.339Z,20.86
2022-08-22T23:03:06.527Z,20.83
2022-08-22T23:05:34.103Z,20.78
2022-08-22T23:08:01.351Z,20.77
2022-08-22T23:10:29.709Z,20.77
2022-08-22T23:12:56.479Z,20.78
2022-08-22T23:15:23.048Z,20.80
2022-08-22T23:17:49.589Z,20.79
2022-08-22T23:20:16.173Z,20.84
2022-08-22T23:22:44.993Z,20.84
2022-08-22T23:25:11.918Z,20.86
2022-08-22T23:27:38.702Z,20.87
2022-08-22T23:30:08.607Z,20.89
2022-08-22T23:32:36.813Z,20.90
2022-08-22T23:35:04.587Z,20.90
2022-08-22T23:37:31.132Z,20.96
2022-08-22T23:39:57.770Z,21.03
2022-08-22T23:42:24.600Z,21.01
2022-08-22T23:44:51.883Z,20.99
2022-08-22T23:47:18.430Z,20.93
2022-08-22T23:49:44.974Z,20.88
2022-08-22T23:52:13.048Z,20.90
2022-08-22T23:54:39.717Z,20.91
2022-08-22T23:57:11.876Z,20.86
2022-08-22T23:59:43.402Z,20.82
